sensor_id;sensor_type;location;lat;lon;timestamp;pressure;altitude;pressure_sealevel;temperature
67829;BMP280;54626;45.436;10.942;2023-05-27T00:01:29;100910.06;;;22.03
67829;BMP280;54626;45.436;10.942;2023-05-27T00:03:56;100912.00;;;22.00
67829;BMP280;54626;45.436;10.942;2023-05-27T00:06:23;100919.88;;;22.02
67829;BMP280;54626;45.436;10.942;2023-05-27T00:08:50;100935.44;;;22.03
67829;BMP280;54626;45.436;10.942;2023-05-27T00:11:35;100943.75;;;22.01
67829;BMP280;54626;45.436;10.942;2023-05-27T00:14:02;100952.56;;;21.95
67829;BMP280;54626;45.436;10.942;2023-05-27T00:16:29;100957.59;;;21.97
67829;BMP280;54626;45.436;10.942;2023-05-27T00:21:37;100966.28;;;22.01
67829;BMP280;54626;45.436;10.942;2023-05-27T00:27:21;100981.75;;;22.23
67829;BMP280;54626;45.436;10.942;2023-05-27T00:29:59;100975.09;;;22.41
67829;BMP280;54626;45.436;10.942;2023-05-27T00:32:49;100991.91;;;22.50
67829;BMP280;54626;45.436;10.942;2023-05-27T00:35:16;100995.56;;;22.64
67829;BMP280;54626;45.436;10.942;2023-05-27T00:37:48;100986.00;;;22.69
67829;BMP280;54626;45.436;10.942;2023-05-27T00:40:30;100985.28;;;22.57
67829;BMP280;54626;45.436;10.942;2023-05-27T00:43:00;100990.16;;;22.11
67829;BMP280;54626;45.436;10.942;2023-05-27T00:45:27;100993.47;;;21.41
67829;BMP280;54626;45.436;10.942;2023-05-27T00:47:57;100997.69;;;21.10
67829;BMP280;54626;45.436;10.942;2023-05-27T00:50:30;100994.41;;;20.93
67829;BMP280;54626;45.436;10.942;2023-05-27T00:53:19;100988.91;;;20.74
67829;BMP280;54626;45.436;10.942;2023-05-27T00:55:51;100997.03;;;20.49
67829;BMP280;54626;45.436;10.942;2023-05-27T01:01:35;101000.84;;;20.14
67829;BMP280;54626;45.436;10.942;2023-05-27T01:04:03;101009.47;;;19.97
67829;BMP280;54626;45.436;10.942;2023-05-27T01:06:43;101003.13;;;19.78
67829;BMP280;54626;45.436;10.942;2023-05-27T01:13:01;100987.94;;;19.62
67829;BMP280;54626;45.436;10.942;2023-05-27T01:15:40;100982.91;;;19.51
67829;BMP280;54626;45.436;10.942;2023-05-27T01:18:32;100984.72;;;19.46
67829;BMP280;54626;45.436;10.942;2023-05-27T01:21:06;100979.66;;;19.45
67829;BMP280;54626;45.436;10.942;2023-05-27T01:24:18;100974.53;;;19.41
67829;BMP280;54626;45.436;10.942;2023-05-27T01:27:02;100966.72;;;19.31
67829;BMP280;54626;45.436;10.942;2023-05-27T01:30:02;100971.13;;;19.34
67829;BMP280;54626;45.436;10.942;2023-05-27T01:32:51;100972.91;;;19.39
67829;BMP280;54626;45.436;10.942;2023-05-27T01:35:45;100977.75;;;19.38
67829;BMP280;54626;45.436;10.942;2023-05-27T01:38:16;100988.09;;;19.36
67829;BMP280;54626;45.436;10.942;2023-05-27T01:40:44;100996.97;;;19.41
67829;BMP280;54626;45.436;10.942;2023-05-27T01:43:13;100998.59;;;19.44
67829;BMP280;54626;45.436;10.942;2023-05-27T01:45:42;101009.97;;;19.46
67829;BMP280;54626;45.436;10.942;2023-05-27T01:55:28;101033.44;;;19.51
67829;BMP280;54626;45.436;10.942;2023-05-27T02:00:33;101038.03;;;19.56
67829;BMP280;54626;45.436;10.942;2023-05-27T02:03:03;101037.13;;;19.63
67829;BMP280;54626;45.436;10.942;2023-05-27T02:05:45;101037.00;;;19.61
67829;BMP280;54626;45.436;10.942;2023-05-27T02:08:25;101040.97;;;19.58
67829;BMP280;54626;45.436;10.942;2023-05-27T02:14:15;101049.09;;;19.63
67829;BMP280;54626;45.436;10.942;2023-05-27T02:17:07;101056.50;;;19.68
67829;BMP280;54626;45.436;10.942;2023-05-27T02:19:34;101058.56;;;19.68
67829;BMP280;54626;45.436;10.942;2023-05-27T02:22:01;101073.19;;;19.66
67829;BMP280;54626;45.436;10.942;2023-05-27T02:25:07;101073.91;;;19.67
67829;BMP280;54626;45.436;10.942;2023-05-27T02:27:36;101067.09;;;19.70
67829;BMP280;54626;45.436;10.942;2023-05-27T02:30:30;101077.00;;;19.71
67829;BMP280;54626;45.436;10.942;2023-05-27T02:33:00;101086.03;;;19.69
67829;BMP280;54626;45.436;10.942;2023-05-27T02:41:33;101088.53;;;19.75
67829;BMP280;54626;45.436;10.942;2023-05-27T02:44:00;101095.34;;;19.72
67829;BMP280;54626;45.436;10.942;2023-05-27T02:46:26;101093.13;;;19.70
67829;BMP280;54626;45.436;10.942;2023-05-27T02:52:04;101082.94;;;19.56
67829;BMP280;54626;45.436;10.942;2023-05-27T02:57:11;101082.75;;;19.44
67829;BMP280;54626;45.436;10.942;2023-05-27T02:59:38;101083.34;;;19.34
67829;BMP280;54626;45.436;10.942;2023-05-27T03:02:33;101090.56;;;19.18
67829;BMP280;54626;45.436;10.942;2023-05-27T03:05:15;101083.56;;;19.00
67829;BMP280;54626;45.436;10.942;2023-05-27T03:11:25;101085.06;;;18.75
67829;BMP280;54626;45.436;10.942;2023-05-27T03:16:24;101095.47;;;18.65
67829;BMP280;54626;45.436;10.942;2023-05-27T03:19:13;101101.16;;;18.48
67829;BMP280;54626;45.436;10.942;2023-05-27T03:21:53;101094.50;;;18.43
67829;BMP280;54626;45.436;10.942;2023-05-27T03:24:19;101078.06;;;18.40
67829;BMP280;54626;45.436;10.942;2023-05-27T03:26:46;101078.84;;;18.40
67829;BMP280;54626;45.436;10.942;2023-05-27T03:32:09;101070.75;;;18.44
67829;BMP280;54626;45.436;10.942;2023-05-27T03:34:36;101068.63;;;18.35
67829;BMP280;54626;45.436;10.942;2023-05-27T03:40:34;101062.75;;;18.41
67829;BMP280;54626;45.436;10.942;2023-05-27T03:43:06;101059.13;;;18.48
67829;BMP280;54626;45.436;10.942;2023-05-27T03:45:33;101054.41;;;18.50
67829;BMP280;54626;45.436;10.942;2023-05-27T03:48:00;101065.09;;;18.61
67829;BMP280;54626;45.436;10.942;2023-05-27T03:50:30;101056.09;;;18.63
67829;BMP280;54626;45.436;10.942;2023-05-27T03:52:56;101048.28;;;18.71
67829;BMP280;54626;45.436;10.942;2023-05-27T03:58:26;101038.78;;;18.83
67829;BMP280;54626;45.436;10.942;2023-05-27T04:00:53;101042.47;;;18.85
67829;BMP280;54626;45.436;10.942;2023-05-27T04:03:30;101031.09;;;18.83
67829;BMP280;54626;45.436;10.942;2023-05-27T04:05:56;101038.09;;;18.92
67829;BMP280;54626;45.436;10.942;2023-05-27T04:11:52;101031.75;;;19.01
67829;BMP280;54626;45.436;10.942;2023-05-27T04:14:31;101030.88;;;19.08
67829;BMP280;54626;45.436;10.942;2023-05-27T04:16:57;101025.84;;;19.06
67829;BMP280;54626;45.436;10.942;2023-05-27T04:19:24;101030.44;;;19.11
67829;BMP280;54626;45.436;10.942;2023-05-27T04:21:52;101019.69;;;19.17
67829;BMP280;54626;45.436;10.942;2023-05-27T04:31:28;101031.19;;;19.40
67829;BMP280;54626;45.436;10.942;2023-05-27T04:34:10;101030.94;;;19.45
67829;BMP280;54626;45.436;10.942;2023-05-27T04:36:37;101035.06;;;19.54
67829;BMP280;54626;45.436;10.942;2023-05-27T04:39:03;101050.56;;;19.55
67829;BMP280;54626;45.436;10.942;2023-05-27T04:41:33;101040.53;;;19.61
67829;BMP280;54626;45.436;10.942;2023-05-27T04:47:29;101040.69;;;19.73
67829;BMP280;54626;45.436;10.942;2023-05-27T04:49:57;101038.28;;;19.79
67829;BMP280;54626;45.436;10.942;2023-05-27T04:52:23;101038.31;;;19.88
67829;BMP280;54626;45.436;10.942;2023-05-27T05:00:56;101036.66;;;19.95
67829;BMP280;54626;45.436;10.942;2023-05-27T05:03:23;101034.59;;;19.95
67829;BMP280;54626;45.436;10.942;2023-05-27T05:06:03;101036.34;;;20.09
67829;BMP280;54626;45.436;10.942;2023-05-27T05:08:32;101043.72;;;20.14
67829;BMP280;54626;45.436;10.942;2023-05-27T05:11:05;101042.66;;;20.29
67829;BMP280;54626;45.436;10.942;2023-05-27T05:13:32;101048.81;;;20.46
67829;BMP280;54626;45.436;10.942;2023-05-27T05:16:18;101040.19;;;20.63
67829;BMP280;54626;45.436;10.942;2023-05-27T05:18:44;101042.19;;;20.72
67829;BMP280;54626;45.436;10.942;2023-05-27T05:21:11;101045.16;;;20.74
67829;BMP280;54626;45.436;10.942;2023-05-27T05:27:32;101047.84;;;20.93
67829;BMP280;54626;45.436;10.942;2023-05-27T05:30:08;101053.63;;;20.95
67829;BMP280;54626;45.436;10.942;2023-05-27T05:32:35;101052.81;;;21.04
67829;BMP280;54626;45.436;10.942;2023-05-27T05:35:17;101054.78;;;21.22
67829;BMP280;54626;45.436;10.942;2023-05-27T05:47:51;101054.03;;;21.74
67829;BMP280;54626;45.436;10.942;2023-05-27T05:50:18;101055.56;;;21.87
67829;BMP280;54626;45.436;10.942;2023-05-27T05:52:44;101045.41;;;21.93
67829;BMP280;54626;45.436;10.942;2023-05-27T05:55:11;101052.88;;;21.89
67829;BMP280;54626;45.436;10.942;2023-05-27T05:57:37;101051.03;;;21.93
67829;BMP280;54626;45.436;10.942;2023-05-27T06:00:04;101059.28;;;22.01
67829;BMP280;54626;45.436;10.942;2023-05-27T06:02:48;101049.75;;;22.06
67829;BMP280;54626;45.436;10.942;2023-05-27T06:05:14;101050.72;;;21.99
67829;BMP280;54626;45.436;10.942;2023-05-27T06:07:44;101054.88;;;21.98
67829;BMP280;54626;45.436;10.942;2023-05-27T06:10:11;101056.41;;;21.89
67829;BMP280;54626;45.436;10.942;2023-05-27T06:12:38;101061.47;;;21.91
67829;BMP280;54626;45.436;10.942;2023-05-27T06:15:06;101058.25;;;21.96
67829;BMP280;54626;45.436;10.942;2023-05-27T06:17:35;101060.25;;;21.94
67829;BMP280;54626;45.436;10.942;2023-05-27T06:20:02;101052.03;;;21.98
67829;BMP280;54626;45.436;10.942;2023-05-27T06:22:29;101051.66;;;22.03
67829;BMP280;54626;45.436;10.942;2023-05-27T06:24:56;101050.97;;;22.03
67829;BMP280;54626;45.436;10.942;2023-05-27T06:27:25;101061.47;;;21.91
67829;BMP280;54626;45.436;10.942;2023-05-27T06:36:18;101070.69;;;21.70
67829;BMP280;54626;45.436;10.942;2023-05-27T06:39:09;101069.16;;;21.58
67829;BMP280;54626;45.436;10.942;2023-05-27T06:41:39;101063.25;;;21.54
67829;BMP280;54626;45.436;10.942;2023-05-27T06:44:08;101062.28;;;21.50
67829;BMP280;54626;45.436;10.942;2023-05-27T06:46:34;101066.50;;;21.60
67829;BMP280;54626;45.436;10.942;2023-05-27T06:49:18;101063.53;;;21.90
67829;BMP280;54626;45.436;10.942;2023-05-27T06:51:45;101053.94;;;22.27
67829;BMP280;54626;45.436;10.942;2023-05-27T06:54:12;101049.03;;;22.51
67829;BMP280;54626;45.436;10.942;2023-05-27T06:56:52;101055.66;;;22.32
67829;BMP280;54626;45.436;10.942;2023-05-27T07:03:04;101043.88;;;22.59
67829;BMP280;54626;45.436;10.942;2023-05-27T07:07:57;101050.38;;;22.95
67829;BMP280;54626;45.436;10.942;2023-05-27T07:10:23;101060.88;;;23.06
67829;BMP280;54626;45.436;10.942;2023-05-27T07:13:12;101052.28;;;23.16
67829;BMP280;54626;45.436;10.942;2023-05-27T07:18:47;101039.72;;;23.30
67829;BMP280;54626;45.436;10.942;2023-05-27T07:21:20;101037.50;;;23.29
67829;BMP280;54626;45.436;10.942;2023-05-27T07:24:08;101033.09;;;23.62
67829;BMP280;54626;45.436;10.942;2023-05-27T07:26:36;101040.34;;;23.78
67829;BMP280;54626;45.436;10.942;2023-05-27T07:29:03;101038.00;;;23.99
67829;BMP280;54626;45.436;10.942;2023-05-27T07:31:46;101039.47;;;24.00
67829;BMP280;54626;45.436;10.942;2023-05-27T07:37:45;101031.56;;;24.37
67829;BMP280;54626;45.436;10.942;2023-05-27T07:40:11;101034.50;;;24.39
67829;BMP280;54626;45.436;10.942;2023-05-27T07:45:15;101026.22;;;24.30
67829;BMP280;54626;45.436;10.942;2023-05-27T07:47:42;101016.47;;;24.33
67829;BMP280;54626;45.436;10.942;2023-05-27T07:53:37;101027.78;;;24.33
67829;BMP280;54626;45.436;10.942;2023-05-27T07:56:03;101028.31;;;24.29
67829;BMP280;54626;45.436;10.942;2023-05-27T08:01:46;101018.03;;;24.62
67829;BMP280;54626;45.436;10.942;2023-05-27T08:07:47;101020.09;;;24.75
67829;BMP280;54626;45.436;10.942;2023-05-27T08:10:23;101020.47;;;24.68
67829;BMP280;54626;45.436;10.942;2023-05-27T08:12:49;101013.75;;;24.75
67829;BMP280;54626;45.436;10.942;2023-05-27T08:17:51;101020.41;;;24.94
67829;BMP280;54626;45.436;10.942;2023-05-27T08:20:19;101016.72;;;24.92
67829;BMP280;54626;45.436;10.942;2023-05-27T08:22:46;101013.44;;;24.42
67829;BMP280;54626;45.436;10.942;2023-05-27T08:25:12;101013.38;;;24.82
67829;BMP280;54626;45.436;10.942;2023-05-27T08:37:28;100988.59;;;24.54
67829;BMP280;54626;45.436;10.942;2023-05-27T08:40:13;100996.19;;;24.78
67829;BMP280;54626;45.436;10.942;2023-05-27T08:50:04;100972.91;;;24.93
67829;BMP280;54626;45.436;10.942;2023-05-27T08:52:32;100982.56;;;24.88
67829;BMP280;54626;45.436;10.942;2023-05-27T08:55:02;100968.84;;;25.11
67829;BMP280;54626;45.436;10.942;2023-05-27T09:01:23;100978.19;;;25.58
67829;BMP280;54626;45.436;10.942;2023-05-27T09:07:11;100983.25;;;25.90
67829;BMP280;54626;45.436;10.942;2023-05-27T09:09:39;100976.50;;;26.14
67829;BMP280;54626;45.436;10.942;2023-05-27T09:12:06;100986.84;;;26.38
67829;BMP280;54626;45.436;10.942;2023-05-27T09:14:35;100980.41;;;26.38
67829;BMP280;54626;45.436;10.942;2023-05-27T09:17:08;100983.50;;;26.44
67829;BMP280;54626;45.436;10.942;2023-05-27T09:19:35;100990.06;;;26.81
67829;BMP280;54626;45.436;10.942;2023-05-27T09:25:01;100971.13;;;27.39
67829;BMP280;54626;45.436;10.942;2023-05-27T09:27:29;100971.38;;;27.45
67829;BMP280;54626;45.436;10.942;2023-05-27T09:29:57;100971.38;;;27.45
67829;BMP280;54626;45.436;10.942;2023-05-27T09:45:42;100968.22;;;26.51
67829;BMP280;54626;45.436;10.942;2023-05-27T09:48:11;100966.09;;;26.19
67829;BMP280;54626;45.436;10.942;2023-05-27T09:50:40;100972.09;;;26.42
67829;BMP280;54626;45.436;10.942;2023-05-27T09:53:08;100965.94;;;26.65
67829;BMP280;54626;45.436;10.942;2023-05-27T09:55:42;100964.25;;;26.92
67829;BMP280;54626;45.436;10.942;2023-05-27T09:58:11;100965.53;;;27.41
67829;BMP280;54626;45.436;10.942;2023-05-27T10:00:41;100949.47;;;27.31
67829;BMP280;54626;45.436;10.942;2023-05-27T10:06:37;100949.72;;;27.56
67829;BMP280;54626;45.436;10.942;2023-05-27T10:09:04;100947.50;;;27.35
67829;BMP280;54626;45.436;10.942;2023-05-27T10:11:31;100938.50;;;27.23
67829;BMP280;54626;45.436;10.942;2023-05-27T10:20:34;100937.75;;;27.40
67829;BMP280;54626;45.436;10.942;2023-05-27T10:34:42;100936.31;;;27.78
67829;BMP280;54626;45.436;10.942;2023-05-27T10:37:10;100933.72;;;27.64
67829;BMP280;54626;45.436;10.942;2023-05-27T10:43:00;100930.91;;;26.58
67829;BMP280;54626;45.436;10.942;2023-05-27T10:46:23;100928.34;;;27.35
67829;BMP280;54626;45.436;10.942;2023-05-27T10:48:50;100926.91;;;27.54
67829;BMP280;54626;45.436;10.942;2023-05-27T10:51:17;100921.69;;;27.29
67829;BMP280;54626;45.436;10.942;2023-05-27T10:53:46;100926.97;;;27.56
67829;BMP280;54626;45.436;10.942;2023-05-27T10:56:20;100918.75;;;27.64
67829;BMP280;54626;45.436;10.942;2023-05-27T10:59:10;100922.06;;;28.16
67829;BMP280;54626;45.436;10.942;2023-05-27T11:01:43;100919.06;;;28.12
67829;BMP280;54626;45.436;10.942;2023-05-27T11:04:10;100906.06;;;27.47
67829;BMP280;54626;45.436;10.942;2023-05-27T11:06:36;100907.66;;;27.72
67829;BMP280;54626;45.436;10.942;2023-05-27T11:09:07;100901.97;;;27.72
67829;BMP280;54626;45.436;10.942;2023-05-27T11:11:36;100899.59;;;28.05
67829;BMP280;54626;45.436;10.942;2023-05-27T11:14:06;100892.59;;;28.08
67829;BMP280;54626;45.436;10.942;2023-05-27T11:16:33;100897.50;;;28.27
67829;BMP280;54626;45.436;10.942;2023-05-27T11:19:01;100885.38;;;28.05
67829;BMP280;54626;45.436;10.942;2023-05-27T11:21:28;100885.66;;;27.72
67829;BMP280;54626;45.436;10.942;2023-05-27T11:23:55;100890.59;;;27.91
67829;BMP280;54626;45.436;10.942;2023-05-27T11:26:23;100896.06;;;28.26
67829;BMP280;54626;45.436;10.942;2023-05-27T11:28:58;100888.72;;;28.40
67829;BMP280;54626;45.436;10.942;2023-05-27T11:31:29;100889.38;;;28.83
67829;BMP280;54626;45.436;10.942;2023-05-27T11:34:00;100892.97;;;28.83
67829;BMP280;54626;45.436;10.942;2023-05-27T11:36:27;100885.25;;;28.88
67829;BMP280;54626;45.436;10.942;2023-05-27T11:38:57;100875.13;;;28.83
67829;BMP280;54626;45.436;10.942;2023-05-27T11:41:30;100878.66;;;28.81
67829;BMP280;54626;45.436;10.942;2023-05-27T11:44:09;100875.25;;;28.87
67829;BMP280;54626;45.436;10.942;2023-05-27T11:46:38;100869.91;;;29.72
67829;BMP280;54626;45.436;10.942;2023-05-27T11:49:06;100869.44;;;29.82
67829;BMP280;54626;45.436;10.942;2023-05-27T11:51:34;100871.38;;;29.48
67829;BMP280;54626;45.436;10.942;2023-05-27T11:54:02;100869.78;;;29.68
67829;BMP280;54626;45.436;10.942;2023-05-27T11:56:29;100861.47;;;29.51
67829;BMP280;54626;45.436;10.942;2023-05-27T11:59:29;100869.78;;;29.68
67829;BMP280;54626;45.436;10.942;2023-05-27T12:02:14;100855.31;;;30.15
67829;BMP280;54626;45.436;10.942;2023-05-27T12:04:41;100856.16;;;30.21
67829;BMP280;54626;45.436;10.942;2023-05-27T12:07:07;100851.09;;;29.91
67829;BMP280;54626;45.436;10.942;2023-05-27T12:09:45;100851.44;;;29.50
67829;BMP280;54626;45.436;10.942;2023-05-27T12:12:42;100843.59;;;29.76
67829;BMP280;54626;45.436;10.942;2023-05-27T12:15:10;100835.03;;;30.03
67829;BMP280;54626;45.436;10.942;2023-05-27T12:17:37;100849.66;;;30.17
67829;BMP280;54626;45.436;10.942;2023-05-27T12:20:04;100850.88;;;30.39
67829;BMP280;54626;45.436;10.942;2023-05-27T12:22:32;100835.25;;;30.73
67829;BMP280;54626;45.436;10.942;2023-05-27T12:28:02;100847.78;;;30.29
67829;BMP280;54626;45.436;10.942;2023-05-27T12:30:29;100851.28;;;30.55
67829;BMP280;54626;45.436;10.942;2023-05-27T12:33:14;100851.91;;;30.22
67829;BMP280;54626;45.436;10.942;2023-05-27T12:42:52;100835.28;;;30.44
67829;BMP280;54626;45.436;10.942;2023-05-27T12:46:06;100837.44;;;30.44
67829;BMP280;54626;45.436;10.942;2023-05-27T12:52:05;100840.69;;;30.93
67829;BMP280;54626;45.436;10.942;2023-05-27T12:55:09;100838.91;;;30.78
67829;BMP280;54626;45.436;10.942;2023-05-27T12:57:37;100831.50;;;30.34
67829;BMP280;54626;45.436;10.942;2023-05-27T13:00:13;100828.34;;;30.84
67829;BMP280;54626;45.436;10.942;2023-05-27T13:08:37;100831.78;;;29.87
67829;BMP280;54626;45.436;10.942;2023-05-27T13:11:04;100830.41;;;29.63
67829;BMP280;54626;45.436;10.942;2023-05-27T13:13:31;100814.34;;;30.65
67829;BMP280;54626;45.436;10.942;2023-05-27T13:21:15;100822.13;;;30.62
67829;BMP280;54626;45.436;10.942;2023-05-27T13:23:41;100815.69;;;30.95
67829;BMP280;54626;45.436;10.942;2023-05-27T13:26:42;100816.66;;;31.07
67829;BMP280;54626;45.436;10.942;2023-05-27T13:29:12;100813.03;;;31.42
67829;BMP280;54626;45.436;10.942;2023-05-27T13:35:21;100816.22;;;30.86
67829;BMP280;54626;45.436;10.942;2023-05-27T13:37:48;100809.69;;;31.55
67829;BMP280;54626;45.436;10.942;2023-05-27T13:40:14;100805.06;;;31.37
67829;BMP280;54626;45.436;10.942;2023-05-27T13:45:23;100792.66;;;30.52
67829;BMP280;54626;45.436;10.942;2023-05-27T13:50:28;100791.13;;;31.56
67829;BMP280;54626;45.436;10.942;2023-05-27T13:52:57;100790.63;;;31.31
67829;BMP280;54626;45.436;10.942;2023-05-27T13:55:25;100797.38;;;31.47
67829;BMP280;54626;45.436;10.942;2023-05-27T14:04:33;100807.25;;;31.38
67829;BMP280;54626;45.436;10.942;2023-05-27T14:07:00;100808.31;;;32.01
67829;BMP280;54626;45.436;10.942;2023-05-27T14:09:29;100800.06;;;32.23
67829;BMP280;54626;45.436;10.942;2023-05-27T14:17:12;100791.31;;;31.27
67829;BMP280;54626;45.436;10.942;2023-05-27T14:19:38;100794.59;;;30.77
67829;BMP280;54626;45.436;10.942;2023-05-27T14:22:05;100788.66;;;30.34
67829;BMP280;54626;45.436;10.942;2023-05-27T14:24:31;100797.00;;;30.55
67829;BMP280;54626;45.436;10.942;2023-05-27T14:30:45;100794.91;;;30.91
67829;BMP280;54626;45.436;10.942;2023-05-27T14:33:11;100791.81;;;31.16
67829;BMP280;54626;45.436;10.942;2023-05-27T14:35:40;100779.75;;;32.05
67829;BMP280;54626;45.436;10.942;2023-05-27T14:38:07;100785.28;;;32.44
67829;BMP280;54626;45.436;10.942;2023-05-27T14:40:34;100782.03;;;31.70
67829;BMP280;54626;45.436;10.942;2023-05-27T14:43:01;100785.31;;;30.78
67829;BMP280;54626;45.436;10.942;2023-05-27T14:48:04;100777.69;;;30.89
67829;BMP280;54626;45.436;10.942;2023-05-27T14:50:40;100781.34;;;30.58
67829;BMP280;54626;45.436;10.942;2023-05-27T14:53:06;100778.88;;;30.76
67829;BMP280;54626;45.436;10.942;2023-05-27T14:55:47;100769.19;;;31.71
67829;BMP280;54626;45.436;10.942;2023-05-27T15:04:46;100754.63;;;31.57
67829;BMP280;54626;45.436;10.942;2023-05-27T15:07:13;100748.28;;;31.62
67829;BMP280;54626;45.436;10.942;2023-05-27T15:09:53;100751.66;;;31.96
67829;BMP280;54626;45.436;10.942;2023-05-27T15:12:20;100749.84;;;31.69
67829;BMP280;54626;45.436;10.942;2023-05-27T15:18:35;100740.84;;;32.41
67829;BMP280;54626;45.436;10.942;2023-05-27T15:21:48;100737.00;;;31.29
67829;BMP280;54626;45.436;10.942;2023-05-27T15:24:14;100752.09;;;30.61
67829;BMP280;54626;45.436;10.942;2023-05-27T15:26:51;100751.91;;;31.65
67829;BMP280;54626;45.436;10.942;2023-05-27T15:29:19;100748.44;;;32.19
67829;BMP280;54626;45.436;10.942;2023-05-27T15:31:53;100739.69;;;32.07
67829;BMP280;54626;45.436;10.942;2023-05-27T15:34:19;100738.78;;;32.48
67829;BMP280;54626;45.436;10.942;2023-05-27T15:36:46;100734.75;;;32.71
67829;BMP280;54626;45.436;10.942;2023-05-27T15:39:31;100740.97;;;31.98
67829;BMP280;54626;45.436;10.942;2023-05-27T15:41:57;100741.97;;;31.29
67829;BMP280;54626;45.436;10.942;2023-05-27T15:44:24;100742.13;;;30.96
67829;BMP280;54626;45.436;10.942;2023-05-27T15:59:56;100730.28;;;29.51
67829;BMP280;54626;45.436;10.942;2023-05-27T16:09:20;100735.00;;;28.88
67829;BMP280;54626;45.436;10.942;2023-05-27T16:12:19;100737.91;;;28.67
67829;BMP280;54626;45.436;10.942;2023-05-27T16:18:28;100722.53;;;28.29
67829;BMP280;54626;45.436;10.942;2023-05-27T16:20:55;100728.38;;;28.33
67829;BMP280;54626;45.436;10.942;2023-05-27T16:23:22;100723.94;;;28.29
67829;BMP280;54626;45.436;10.942;2023-05-27T16:25:49;100725.34;;;28.28
67829;BMP280;54626;45.436;10.942;2023-05-27T16:28:20;100718.31;;;28.07
67829;BMP280;54626;45.436;10.942;2023-05-27T16:30:53;100714.22;;;27.91
67829;BMP280;54626;45.436;10.942;2023-05-27T16:33:21;100713.44;;;27.67
67829;BMP280;54626;45.436;10.942;2023-05-27T16:35:48;100722.38;;;27.38
67829;BMP280;54626;45.436;10.942;2023-05-27T16:38:15;100713.50;;;27.29
67829;BMP280;54626;45.436;10.942;2023-05-27T16:40:41;100713.03;;;27.15
67829;BMP280;54626;45.436;10.942;2023-05-27T16:43:08;100706.38;;;27.08
67829;BMP280;54626;45.436;10.942;2023-05-27T16:45:34;100700.69;;;27.08
67829;BMP280;54626;45.436;10.942;2023-05-27T16:48:01;100703.47;;;27.06
67829;BMP280;54626;45.436;10.942;2023-05-27T16:53:26;100699.41;;;26.92
67829;BMP280;54626;45.436;10.942;2023-05-27T16:55:53;100699.19;;;26.86
67829;BMP280;54626;45.436;10.942;2023-05-27T16:58:19;100693.44;;;26.84
67829;BMP280;54626;45.436;10.942;2023-05-27T17:06:11;100694.53;;;26.75
67829;BMP280;54626;45.436;10.942;2023-05-27T17:08:44;100690.53;;;26.82
67829;BMP280;54626;45.436;10.942;2023-05-27T17:11:11;100694.47;;;26.73
67829;BMP280;54626;45.436;10.942;2023-05-27T17:13:59;100687.31;;;26.72
67829;BMP280;54626;45.436;10.942;2023-05-27T17:16:55;100693.00;;;26.72
67829;BMP280;54626;45.436;10.942;2023-05-27T17:19:23;100697.88;;;26.70
67829;BMP280;54626;45.436;10.942;2023-05-27T17:21:49;100693.28;;;26.80
67829;BMP280;54626;45.436;10.942;2023-05-27T17:24:16;100688.91;;;26.77
67829;BMP280;54626;45.436;10.942;2023-05-27T17:26:50;100688.16;;;26.77
67829;BMP280;54626;45.436;10.942;2023-05-27T17:29:18;100696.47;;;26.71
67829;BMP280;54626;45.436;10.942;2023-05-27T17:31:44;100702.75;;;26.67
67829;BMP280;54626;45.436;10.942;2023-05-27T17:37:59;100695.34;;;26.41
67829;BMP280;54626;45.436;10.942;2023-05-27T17:40:37;100699.16;;;26.30
67829;BMP280;54626;45.436;10.942;2023-05-27T17:43:04;100699.59;;;26.23
67829;BMP280;54626;45.436;10.942;2023-05-27T17:45:30;100703.75;;;26.20
67829;BMP280;54626;45.436;10.942;2023-05-27T17:54:52;100695.16;;;25.83
67829;BMP280;54626;45.436;10.942;2023-05-27T17:57:19;100700.69;;;25.79
67829;BMP280;54626;45.436;10.942;2023-05-27T17:59:45;100692.53;;;25.72
67829;BMP280;54626;45.436;10.942;2023-05-27T18:02:16;100700.94;;;25.52
67829;BMP280;54626;45.436;10.942;2023-05-27T18:04:43;100693.03;;;25.34
67829;BMP280;54626;45.436;10.942;2023-05-27T18:07:10;100699.81;;;25.27
67829;BMP280;54626;45.436;10.942;2023-05-27T18:09:38;100705.22;;;25.21
67829;BMP280;54626;45.436;10.942;2023-05-27T18:12:13;100706.97;;;25.12
67829;BMP280;54626;45.436;10.942;2023-05-27T18:14:40;100708.31;;;25.11
67829;BMP280;54626;45.436;10.942;2023-05-27T18:17:10;100700.47;;;25.10
67829;BMP280;54626;45.436;10.942;2023-05-27T18:19:59;100702.41;;;25.05
67829;BMP280;54626;45.436;10.942;2023-05-27T18:22:29;100706.44;;;25.00
67829;BMP280;54626;45.436;10.942;2023-05-27T18:24:55;100703.16;;;24.90
67829;BMP280;54626;45.436;10.942;2023-05-27T18:27:22;100701.59;;;24.88
67829;BMP280;54626;45.436;10.942;2023-05-27T18:32:26;100698.75;;;24.72
67829;BMP280;54626;45.436;10.942;2023-05-27T18:35:39;100699.28;;;24.69
67829;BMP280;54626;45.436;10.942;2023-05-27T18:38:06;100699.28;;;24.53
67829;BMP280;54626;45.436;10.942;2023-05-27T18:40:33;100711.94;;;24.52
67829;BMP280;54626;45.436;10.942;2023-05-27T18:43:02;100705.41;;;24.48
67829;BMP280;54626;45.436;10.942;2023-05-27T18:49:18;100705.75;;;24.40
67829;BMP280;54626;45.436;10.942;2023-05-27T18:54:40;100695.50;;;24.34
67829;BMP280;54626;45.436;10.942;2023-05-27T18:57:11;100698.03;;;24.28
67829;BMP280;54626;45.436;10.942;2023-05-27T18:59:39;100698.69;;;24.26
67829;BMP280;54626;45.436;10.942;2023-05-27T19:02:06;100699.22;;;24.23
67829;BMP280;54626;45.436;10.942;2023-05-27T19:04:32;100692.09;;;24.22
67829;BMP280;54626;45.436;10.942;2023-05-27T19:06:59;100697.03;;;24.21
67829;BMP280;54626;45.436;10.942;2023-05-27T19:09:25;100705.44;;;24.19
67829;BMP280;54626;45.436;10.942;2023-05-27T19:15:26;100705.75;;;24.12